createdAt,value
2023-02-01T04:02:00.633Z,99234.97
2023-02-01T04:05:11.004Z,99234.56
2023-02-01T04:08:24.344Z,99230.94
2023-02-01T04:11:33.879Z,99234.56
2023-02-01T04:14:43.551Z,99226.91
2023-02-01T04:17:54.466Z,99234.25
2023-02-01T04:21:04.393Z,99243.09
2023-02-01T04:24:14.417Z,99246.81
2023-02-01T04:27:26.501Z,99246.81
2023-02-01T04:30:36.205Z,99247.25
2023-02-01T04:33:47.244Z,99258.16
2023-02-01T04:36:56.756Z,99252.88
2023-02-01T04:40:07.958Z,99240.16
2023-02-01T04:43:18.088Z,99248.91
2023-02-01T04:46:27.961Z,99256.53
2023-02-01T04:49:38.781Z,99238.59
2023-02-01T04:52:48.434Z,99232.31
2023-02-01T04:55:58.073Z,99244.09
2023-02-01T04:59:08.217Z,99239.00
2023-02-01T05:02:17.902Z,99241.66
2023-02-01T05:05:29.342Z,99239.00
2023-02-01T05:08:39.047Z,99246.22
2023-02-01T05:12:00.111Z,99232.75
2023-02-01T05:15:10.224Z,99241.88
2023-02-01T05:18:19.923Z,99238.69
2023-02-01T05:21:31.817Z,99235.50
2023-02-01T05:24:41.442Z,99214.69
2023-02-01T05:27:50.960Z,99202.44
2023-02-01T05:31:00.639Z,99215.34
2023-02-01T05:34:10.376Z,99216.00
2023-02-01T05:37:21.361Z,99220.44
2023-02-01T05:40:30.927Z,99207.00
2023-02-01T05:43:41.739Z,99209.66
2023-02-01T05:46:53.239Z,99209.13
2023-02-01T05:50:02.991Z,99216.31
2023-02-01T05:53:14.972Z,99208.88
2023-02-01T05:56:24.756Z,99198.72
2023-02-01T05:59:34.338Z,99210.38
2023-02-01T08:25:50.158Z,99273.25
2023-02-01T08:29:02.512Z,99266.34
2023-02-01T08:32:13.463Z,99272.84
2023-02-01T08:35:27.920Z,99267.50
2023-02-01T08:38:43.149Z,99264.81
2023-02-01T08:42:11.271Z,99272.09
2023-02-01T08:45:24.829Z,99274.28
2023-02-01T08:48:35.092Z,99279.69
2023-02-01T08:51:44.789Z,99273.69
2023-02-01T08:54:54.550Z,99274.63
2023-02-01T08:58:05.470Z,99276.44
2023-02-01T09:01:17.762Z,99272.84
2023-02-01T09:04:27.605Z,99279.75
2023-02-01T09:07:37.284Z,99277.69
2023-02-01T09:10:47.434Z,99285.91
2023-02-01T09:13:59.049Z,99287.84
2023-02-01T09:17:09.115Z,99294.00
2023-02-01T09:20:21.877Z,99300.44
2023-02-01T09:23:31.663Z,99302.25
2023-02-01T09:26:41.449Z,99315.16
2023-02-01T09:29:53.588Z,99302.56
2023-02-01T09:33:03.308Z,99313.84
2023-02-01T09:36:13.089Z,99325.53
2023-02-01T09:39:24.329Z,99344.00
2023-02-01T09:42:54.018Z,99352.94
2023-02-01T09:46:21.722Z,99358.63
2023-02-01T09:49:34.066Z,99361.94
2023-02-01T09:52:47.544Z,99358.47
2023-02-01T09:56:01.770Z,99355.03
2023-02-01T09:59:25.383Z,99365.56
2023-02-01T10:02:40.931Z,99358.41
2023-02-01T10:06:06.894Z,99373.13
2023-02-01T10:09:33.879Z,99374.34
2023-02-01T10:13:00.373Z,99368.66
2023-02-01T10:16:23.574Z,99387.53
2023-02-01T10:19:48.061Z,99369.84
2023-02-01T10:23:31.524Z,99376.31
2023-02-01T10:26:46.777Z,99376.47
2023-02-01T10:30:00.289Z,99375.13
2023-02-01T10:33:18.507Z,99371.97
2023-02-01T10:36:33.714Z,99365.47
2023-02-01T10:39:43.339Z,99370.59
2023-02-01T10:42:56.103Z,99359.31
2023-02-01T10:46:06.294Z,99359.91
2023-02-01T10:49:20.423Z,99347.59
2023-02-01T10:52:40.718Z,99332.59
2023-02-01T10:55:55.591Z,99328.09
2023-02-01T10:59:07.417Z,99338.72
2023-02-01T11:02:27.371Z,99324.19
2023-02-01T11:05:48.451Z,99318.16
2023-02-01T11:09:02.237Z,99315.19
2023-02-01T11:12:27.154Z,99315.94
2023-02-01T11:15:36.959Z,99321.03
2023-02-01T11:18:47.703Z,99297.75
2023-02-01T11:22:00.539Z,99296.88
2023-02-01T11:25:16.162Z,99276.44
2023-02-01T11:28:29.102Z,99293.88
2023-02-01T11:31:39.757Z,99283.78
2023-02-01T11:34:55.131Z,99284.84
2023-02-01T11:38:15.846Z,99285.72
2023-02-01T11:41:28.669Z,99287.06
2023-02-01T11:44:40.009Z,99294.59
2023-02-01T11:47:54.467Z,99296.72
2023-02-01T11:51:24.042Z,99311.91
2023-02-01T11:54:51.095Z,99309.78
2023-02-01T11:58:14.733Z,99305.59
2023-02-01T12:01:38.846Z,99304.50
2023-02-01T12:05:07.747Z,99317.00
2023-02-01T12:08:31.177Z,99299.56
2023-02-01T12:11:50.920Z,99300.91
2023-02-01T12:15:15.248Z,99285.19
2023-02-01T12:18:45.935Z,99285.00
2023-02-01T12:22:11.441Z,99284.13
2023-02-01T12:25:33.769Z,99262.81
2023-02-01T12:29:02.336Z,99252.41
2023-02-01T12:32:27.935Z,99247.63
2023-02-01T12:35:55.574Z,99236.50
2023-02-01T12:39:18.328Z,99238.94
2023-02-01T12:42:32.967Z,99231.72
2023-02-01T12:45:47.737Z,99214.84
2023-02-01T12:49:03.758Z,99214.38
2023-02-01T12:52:18.849Z,99200.22
2023-02-01T12:55:37.602Z,99192.84
2023-02-01T12:58:51.798Z,99195.56
2023-02-01T13:02:11.438Z,99198.06
2023-02-01T13:05:25.007Z,99201.78
2023-02-01T13:08:42.507Z,99187.09
2023-02-01T13:11:55.955Z,99200.66
2023-02-01T13:15:14.972Z,99202.06
2023-02-01T13:18:29.640Z,99189.56
2023-02-01T13:21:47.671Z,99200.91
2023-02-01T13:25:00.614Z,99194.13
2023-02-01T13:28:16.881Z,99192.19
2023-02-01T13:31:46.619Z,99184.09
2023-02-01T13:35:17.282Z,99193.84
2023-02-01T13:38:56.951Z,99183.31
2023-02-01T13:42:15.782Z,99186.28
2023-02-01T13:45:28.600Z,99184.72
2023-02-01T13:48:43.214Z,99179.78
2023-02-01T13:51:55.346Z,99190.09
2023-02-01T13:55:27.058Z,99184.91
2023-02-01T13:58:42.427Z,99179.22
2023-02-01T14:01:52.871Z,99179.22
2023-02-01T14:05:02.413Z,99179.53
2023-02-01T14:08:14.766Z,99181.91
2023-02-01T14:11:39.057Z,99196.38
2023-02-01T14:14:51.154Z,99201.25
2023-02-01T14:18:00.765Z,99200.41
2023-02-01T14:21:23.833Z,99217.41
2023-02-01T14:24:35.466Z,99213.41
2023-02-01T14:27:46.589Z,99219.97
2023-02-01T14:31:00.598Z,99217.84
2023-02-01T14:34:18.898Z,99200.13
2023-02-01T14:37:32.561Z,99206.75
2023-02-01T14:40:42.492Z,99198.19
2023-02-01T14:44:16.726Z,99209.00
2023-02-01T14:47:33.577Z,99206.44
2023-02-01T14:50:45.012Z,99206.13
2023-02-01T14:53:55.109Z,99209.13
2023-02-01T14:57:05.838Z,99200.56
2023-02-01T15:00:24.830Z,99195.28
2023-02-01T15:03:47.364Z,99201.88
2023-02-01T15:07:00.097Z,99201.91
2023-02-01T15:10:10.524Z,99205.25
2023-02-01T15:13:22.881Z,99205.88
2023-02-01T15:16:33.776Z,99205.88
2023-02-01T15:19:55.175Z,99199.91
2023-02-01T15:23:06.728Z,99197.22
2023-02-01T15:26:28.099Z,99196.91
2023-02-01T15:29:38.179Z,99201.13
2023-02-01T15:32:50.467Z,99208.63
2023-02-01T15:36:12.384Z,99204.13
2023-02-01T15:39:27.009Z,99216.44
2023-02-01T15:42:37.447Z,99214.31
2023-02-01T15:45:47.939Z,99211.00
2023-02-01T15:48:59.062Z,99219.09
2023-02-01T15:52:23.070Z,99219.09
2023-02-01T15:55:38.550Z,99225.25
2023-02-01T15:58:54.242Z,99218.81
2023-02-01T16:02:04.003Z,99230.50
2023-02-01T16:05:33.356Z,99240.44
2023-02-01T16:08:52.816Z,99240.13
2023-02-01T16:12:04.551Z,99252.69
2023-02-01T16:15:14.511Z,99242.53
2023-02-01T16:18:24.043Z,99246.41
2023-02-01T16:21:34.931Z,99258.88
2023-02-01T16:24:44.664Z,99260.09
2023-02-01T16:27:54.437Z,99249.44
2023-02-01T16:31:04.314Z,99262.94
2023-02-01T16:34:17.818Z,99252.72
2023-02-01T16:37:33.100Z,99249.13
2023-02-01T16:40:44.292Z,99250.31
2023-02-01T16:43:55.604Z,99247.03
2023-02-01T16:47:11.419Z,99239.81
2023-02-01T16:50:25.653Z,99245.78
2023-02-01T16:53:53.174Z,99252.72
2023-02-01T16:57:03.360Z,99245.66
2023-02-01T17:00:24.681Z,99251.03
2023-02-01T17:03:35.570Z,99236.50
2023-02-01T17:06:49.797Z,99240.84
2023-02-01T17:10:00.834Z,99237.38
2023-02-01T17:13:14.805Z,99227.47
2023-02-01T17:16:29.028Z,99223.44
2023-02-01T17:19:39.043Z,99219.06
2023-02-01T17:22:53.103Z,99217.84
2023-02-01T17:26:04.300Z,99202.56
2023-02-01T17:29:14.636Z,99213.91
2023-02-01T17:32:26.379Z,99213.31
2023-02-01T17:35:36.545Z,99216.88
2023-02-01T17:38:53.841Z,99224.38
2023-02-01T17:42:13.481Z,99227.34
2023-02-01T17:45:33.848Z,99233.97
2023-02-01T17:48:43.988Z,99224.50
2023-02-01T17:51:53.568Z,99238.13
2023-02-01T17:55:04.954Z,99242.63
2023-02-01T17:58:17.421Z,99236.97
2023-02-01T18:01:27.588Z,99237.81
2023-02-01T18:04:37.649Z,99229.72
2023-02-01T18:07:47.732Z,99237.34
2023-02-01T18:11:00.823Z,99250.56
2023-02-01T18:14:14.072Z,99249.53
2023-02-01T18:17:23.725Z,99242.97
2023-02-01T18:20:35.603Z,99261.09
2023-02-01T18:23:46.098Z,99245.38
2023-02-01T18:26:55.868Z,99244.78
2023-02-01T18:30:07.639Z,99254.06
2023-02-01T18:33:20.323Z,99251.53
2023-02-01T18:36:30.384Z,99246.59
2023-02-01T18:39:39.986Z,99248.69
2023-02-01T18:42:49.692Z,99253.06
2023-02-01T18:46:00.984Z,99247.78
2023-02-01T18:49:13.772Z,99244.94
2023-02-01T18:52:23.488Z,99242.06
2023-02-01T18:55:34.278Z,99241.19
2023-02-01T18:58:46.599Z,99243.00
2023-02-01T19:01:57.413Z,99248.09
2023-02-01T19:05:09.122Z,99265.13
2023-02-01T19:08:18.750Z,99266.34
2023-02-01T19:11:28.628Z,99272.22
2023-02-01T19:14:38.145Z,99271.03
2023-02-01T19:17:54.544Z,99263.63
2023-02-01T19:21:06.195Z,99258.81
2023-02-01T19:24:15.933Z,99262.84
2023-02-01T19:27:25.628Z,99266.31
2023-02-01T19:30:35.404Z,99254.94
2023-02-01T19:33:46.488Z,99243.38
2023-02-01T19:36:56.124Z,99257.47
2023-02-01T19:40:06.739Z,99258.38
2023-02-01T19:43:16.777Z,99240.97
2023-02-01T19:46:26.554Z,99248.91
2023-02-01T19:49:37.855Z,99246.38
2023-02-01T19:52:47.629Z,99248.19
2023-02-01T19:55:58.525Z,99244.88
2023-02-01T19:59:08.898Z,99246.06
2023-02-01T20:02:18.290Z,99245.78
2023-02-01T20:05:29.276Z,99252.41
2023-02-01T20:08:39.111Z,99249.97
2023-02-01T20:11:49.518Z,99249.09
2023-02-01T20:14:59.239Z,99260.16
2023-02-01T20:18:09.548Z,99256.91
